createdAt,value
2024-02-23T00:00:56.520Z,98057.19
2024-02-23T00:03:24.804Z,98058.84
2024-02-23T00:05:52.992Z,98071.06
2024-02-23T00:08:22.679Z,98061.13
2024-02-23T00:10:51.415Z,98059.47
2024-02-23T00:13:19.716Z,98063.66
2024-02-23T00:15:48.084Z,98048.56
2024-02-23T00:18:18.346Z,98047.81
2024-02-23T00:20:46.774Z,98047.81
2024-02-23T00:23:15.105Z,98045.88
2024-02-23T00:25:44.846Z,98043.53
2024-02-23T00:28:13.065Z,98038.38
2024-02-23T00:30:41.237Z,98046.19
2024-02-23T00:33:11.172Z,98042.91
2024-02-23T00:35:39.464Z,98037.25
2024-02-23T00:38:09.246Z,98032.16
2024-02-23T00:40:37.652Z,98039.47
2024-02-23T00:43:07.341Z,98031.00
2024-02-23T00:45:35.577Z,98032.13
2024-02-23T00:48:03.856Z,98037.97
2024-02-23T00:50:32.151Z,98045.81
2024-02-23T00:53:00.476Z,98034.06
2024-02-23T00:55:28.770Z,98044.41
2024-02-23T00:57:57.272Z,98031.75
2024-02-23T01:00:26.879Z,98035.91
2024-02-23T01:02:55.393Z,98028.34
2024-02-23T01:05:23.763Z,98020.00
2024-02-23T01:07:51.995Z,98013.19
2024-02-23T01:10:20.481Z,98015.50
2024-02-23T01:12:48.713Z,98008.72
2024-02-23T01:15:17.251Z,97984.03
2024-02-23T01:17:46.858Z,97988.84
2024-02-23T01:20:15.502Z,97998.09
2024-02-23T01:22:43.782Z,98000.44
2024-02-23T01:25:12.034Z,98009.09
2024-02-23T01:27:41.396Z,98014.22
2024-02-23T01:30:10.347Z,98020.69
2024-02-23T01:32:40.284Z,98025.00
2024-02-23T01:35:10.661Z,98020.19
2024-02-23T01:37:38.958Z,98025.41
2024-02-23T01:40:08.768Z,98029.66
2024-02-23T01:42:37.128Z,98029.31
2024-02-23T01:45:06.122Z,98027.00
2024-02-23T01:47:34.457Z,98038.59
2024-02-23T01:50:03.260Z,98046.56
2024-02-23T01:52:33.486Z,98057.69
2024-02-23T01:55:02.064Z,98069.41
2024-02-23T01:57:42.488Z,98066.94
2024-02-23T02:00:19.963Z,98087.63
2024-02-23T02:02:54.683Z,98071.81
2024-02-23T02:05:23.935Z,98086.38
2024-02-23T02:07:59.990Z,98089.50
2024-02-23T02:10:28.482Z,98093.72
2024-02-23T02:12:56.745Z,98112.47
2024-02-23T02:15:25.046Z,98109.03
2024-02-23T02:17:53.292Z,98121.63
2024-02-23T02:20:26.621Z,98139.56
2024-02-23T02:22:56.558Z,98151.16
2024-02-23T02:25:24.793Z,98154.47
2024-02-23T02:27:53.114Z,98161.41
2024-02-23T02:30:21.375Z,98170.59
2024-02-23T02:32:49.738Z,98165.91
2024-02-23T02:35:18.330Z,98163.78
2024-02-23T02:37:46.605Z,98154.16
2024-02-23T02:40:16.824Z,98156.13
2024-02-23T02:42:45.497Z,98170.75
2024-02-23T02:45:13.832Z,98166.78
2024-02-23T02:47:42.440Z,98165.78
2024-02-23T02:50:11.487Z,98169.44
2024-02-23T02:52:39.699Z,98165.97
2024-02-23T02:55:09.289Z,98151.34
2024-02-23T02:57:38.818Z,98157.41
2024-02-23T03:00:11.839Z,98174.75
2024-02-23T03:02:40.196Z,98185.09
2024-02-23T03:05:09.196Z,98202.91
2024-02-23T03:07:37.463Z,98227.09
2024-02-23T03:10:06.721Z,98248.84
2024-02-23T03:12:34.898Z,98263.66
2024-02-23T03:15:04.839Z,98279.56
2024-02-23T03:17:34.330Z,98299.31
2024-02-23T03:20:02.929Z,98312.47
2024-02-23T03:22:31.316Z,98324.06
2024-02-23T03:24:59.503Z,98330.44
2024-02-23T03:27:31.203Z,98335.09
2024-02-23T03:29:59.415Z,98336.06
2024-02-23T03:32:29.071Z,98359.09
2024-02-23T03:34:57.371Z,98359.97
2024-02-23T03:37:25.566Z,98385.81
2024-02-23T03:39:53.815Z,98372.25
2024-02-23T03:42:22.434Z,98379.34
2024-02-23T03:44:51.369Z,98386.94
2024-02-23T03:47:19.676Z,98399.47
2024-02-23T03:49:49.321Z,98409.19
2024-02-23T03:52:17.542Z,98403.75
2024-02-23T03:54:45.723Z,98409.19
2024-02-23T03:57:14.084Z,98408.25
2024-02-23T03:59:42.418Z,98416.06
2024-02-23T04:02:10.633Z,98409.47
2024-02-23T04:04:38.841Z,98414.94
2024-02-23T04:07:08.443Z,98425.53
2024-02-23T04:09:36.701Z,98442.84
2024-02-23T04:12:05.721Z,98454.56
2024-02-23T04:14:35.045Z,98446.88
2024-02-23T04:17:03.308Z,98450.28
2024-02-23T04:19:31.586Z,98472.69
2024-02-23T04:21:59.983Z,98487.31
2024-02-23T04:24:29.538Z,98475.91
2024-02-23T04:26:57.731Z,98485.94
2024-02-23T04:29:25.930Z,98500.97
2024-02-23T04:31:54.166Z,98511.00
2024-02-23T04:34:22.440Z,98520.06
2024-02-23T04:36:50.685Z,98523.81
2024-02-23T04:39:19.016Z,98526.47
2024-02-23T04:41:48.564Z,98533.69
2024-02-23T04:44:16.992Z,98533.69
2024-02-23T04:46:45.280Z,98535.63
2024-02-23T04:49:14.231Z,98547.44
2024-02-23T04:51:42.481Z,98563.59
2024-02-23T04:54:10.671Z,98558.06
2024-02-23T04:56:38.981Z,98554.97
2024-02-23T04:59:08.632Z,98564.28
2024-02-23T05:01:39.990Z,98561.34
2024-02-23T05:04:08.213Z,98546.06
2024-02-23T05:06:36.525Z,98572.09
2024-02-23T05:09:05.348Z,98573.22
2024-02-23T05:11:33.593Z,98607.81
2024-02-23T05:14:01.928Z,98611.66
2024-02-23T05:16:31.593Z,98606.00
2024-02-23T05:18:59.895Z,98612.28
2024-02-23T05:21:28.099Z,98623.63
2024-02-23T05:23:56.292Z,98633.91
2024-02-23T05:26:24.565Z,98638.47
2024-02-23T05:28:53.612Z,98644.69
2024-02-23T05:31:22.180Z,98644.94
2024-02-23T05:33:51.767Z,98651.06
2024-02-23T05:36:20.955Z,98672.66
2024-02-23T05:38:49.205Z,98663.66
2024-02-23T05:41:17.426Z,98671.81
2024-02-23T05:43:45.748Z,98677.09
2024-02-23T05:46:14.060Z,98698.47
2024-02-23T05:48:42.491Z,98701.25
2024-02-23T05:51:12.089Z,98708.88
2024-02-23T05:53:40.327Z,98712.94
2024-02-23T05:56:08.794Z,98731.94
2024-02-23T05:58:37.174Z,98761.50
2024-02-23T06:01:05.629Z,98740.81
2024-02-23T06:03:33.926Z,98767.50
2024-02-23T06:06:02.191Z,98764.94
2024-02-23T06:08:31.793Z,98765.84
2024-02-23T06:11:01.033Z,98774.75
2024-02-23T06:13:30.207Z,98770.13
2024-02-23T06:15:58.572Z,98779.66
2024-02-23T06:18:26.865Z,98796.25
2024-02-23T06:20:55.097Z,98791.22
2024-02-23T06:23:24.088Z,98797.91
2024-02-23T06:25:53.891Z,98827.59
2024-02-23T06:28:22.107Z,98836.84
2024-02-23T06:30:50.290Z,98846.91
2024-02-23T06:33:18.576Z,98852.56
2024-02-23T06:35:47.136Z,98878.84
2024-02-23T06:38:15.430Z,98882.75
2024-02-23T06:40:48.877Z,98901.09
2024-02-23T06:43:23.477Z,98904.22
2024-02-23T06:45:52.132Z,98904.50
2024-02-23T06:48:20.572Z,98911.88
2024-02-23T06:50:48.977Z,98914.41
2024-02-23T06:53:17.405Z,98912.38
2024-02-23T06:55:45.621Z,98921.97
2024-02-23T06:58:15.545Z,98916.22
2024-02-23T07:00:47.351Z,98918.84
2024-02-23T07:03:16.088Z,98936.34
2024-02-23T07:05:44.605Z,98931.19
2024-02-23T07:08:12.989Z,98945.19
2024-02-23T07:10:41.462Z,98939.47
2024-02-23T07:13:09.952Z,98937.78
2024-02-23T07:15:38.397Z,98935.63
2024-02-23T07:18:09.739Z,98945.16
2024-02-23T07:20:38.881Z,98928.34
2024-02-23T07:23:07.840Z,98931.25
2024-02-23T07:25:37.139Z,98948.03
2024-02-23T07:28:05.636Z,98948.03
2024-02-23T07:30:33.930Z,98945.03
2024-02-23T07:33:02.179Z,98945.91
2024-02-23T07:35:31.987Z,98955.75
2024-02-23T07:38:00.831Z,98941.22
2024-02-23T07:40:29.032Z,98952.97
2024-02-23T07:42:57.356Z,98951.88
2024-02-23T07:45:26.820Z,98942.03
2024-02-23T07:47:55.134Z,98953.22
2024-02-23T07:50:23.541Z,98963.06
2024-02-23T07:52:53.244Z,98957.38
2024-02-23T07:55:21.498Z,98959.38
2024-02-23T07:57:50.052Z,98955.91
2024-02-23T08:00:18.952Z,98964.31
2024-02-23T08:02:47.184Z,98962.19
2024-02-23T08:05:15.574Z,98991.69
2024-02-23T08:07:44.944Z,98991.81
2024-02-23T08:10:14.512Z,98997.63
2024-02-23T08:12:43.705Z,99006.53
2024-02-23T08:15:12.281Z,99011.63
2024-02-23T08:17:40.753Z,99026.78
2024-02-23T08:20:10.121Z,99025.34
2024-02-23T08:22:38.602Z,99014.97
2024-02-23T08:25:07.251Z,99027.81
2024-02-23T08:27:36.788Z,99041.06
2024-02-23T08:30:05.859Z,99059.16
2024-02-23T08:32:34.167Z,99054.19
2024-02-23T08:35:02.536Z,99063.19
2024-02-23T08:37:30.789Z,99071.63
2024-02-23T08:39:58.977Z,99074.38
2024-02-23T08:42:27.806Z,99076.59
2024-02-23T08:44:57.476Z,99080.50
2024-02-23T08:47:26.006Z,99079.28
2024-02-23T08:49:54.401Z,99083.38
2024-02-23T08:52:23.075Z,99074.47
2024-02-23T08:54:51.348Z,99079.72
2024-02-23T08:57:21.026Z,99085.41
2024-02-23T08:59:49.369Z,99095.09
2024-02-23T09:02:19.824Z,99094.91
2024-02-23T09:04:48.379Z,99104.66
2024-02-23T09:07:16.658Z,99124.22
2024-02-23T09:09:45.590Z,99115.78
2024-02-23T09:12:15.996Z,99115.72
2024-02-23T09:14:44.724Z,99112.09
2024-02-23T09:17:13.795Z,99110.19
2024-02-23T09:19:43.527Z,99106.00
2024-02-23T09:22:11.779Z,99107.47
2024-02-23T09:24:41.444Z,99117.75
2024-02-23T09:27:09.795Z,99114.75
2024-02-23T09:29:38.061Z,99120.94
2024-02-23T09:32:07.242Z,99107.56
2024-02-23T09:34:35.511Z,99112.81
2024-02-23T09:37:05.113Z,99097.53
2024-02-23T09:39:33.293Z,99102.00
2024-02-23T09:42:03.792Z,99115.34
2024-02-23T09:44:35.522Z,99108.31
2024-02-23T09:47:09.389Z,99118.13
2024-02-23T09:49:40.192Z,99119.22
2024-02-23T09:52:11.527Z,99141.59
2024-02-23T09:54:41.096Z,99130.44
2024-02-23T09:57:11.233Z,99135.69
2024-02-23T09:59:40.370Z,99140.66
2024-02-23T10:02:11.053Z,99150.53
2024-02-23T10:04:40.791Z,99159.03
2024-02-23T10:07:10.494Z,99135.69
2024-02-23T10:09:39.010Z,99128.06
2024-02-23T10:12:08.858Z,99137.66
2024-02-23T10:14:37.287Z,99131.47
2024-02-23T10:17:08.135Z,99129.19
2024-02-23T10:19:36.540Z,99121.06
2024-02-23T10:22:04.951Z,99134.22
2024-02-23T10:24:34.514Z,99127.34
2024-02-23T10:27:03.496Z,99126.22
2024-02-23T10:29:32.619Z,99125.94
2024-02-23T10:32:04.535Z,99135.94
2024-02-23T10:34:33.790Z,99152.00
2024-02-23T10:37:02.008Z,99141.81
2024-02-23T10:39:31.843Z,99139.88
2024-02-23T10:42:05.971Z,99150.75
2024-02-23T10:44:34.365Z,99125.88
2024-02-23T10:47:04.187Z,99125.38
2024-02-23T10:49:33.308Z,99137.25
2024-02-23T10:52:03.803Z,99132.50
2024-02-23T10:54:33.380Z,99139.34
2024-02-23T10:57:04.442Z,99133.97
2024-02-23T10:59:33.046Z,99124.75
2024-02-23T11:02:02.394Z,99153.91
2024-02-23T11:04:33.711Z,99132.59
2024-02-23T11:07:06.458Z,99149.47
2024-02-23T11:09:34.915Z,99142.09
2024-02-23T11:12:07.407Z,99139.44
2024-02-23T11:14:38.396Z,99136.66
2024-02-23T11:17:07.280Z,99132.53
2024-02-23T11:19:37.134Z,99133.56
2024-02-23T11:22:09.215Z,99132.53
2024-02-23T11:24:46.450Z,99125.75
2024-02-23T11:27:19.326Z,99158.06
2024-02-23T11:29:48.645Z,99163.50
2024-02-23T11:32:18.532Z,99138.72
2024-02-23T11:34:57.735Z,99141.50
2024-02-23T11:37:26.062Z,99142.78
2024-02-23T11:39:55.076Z,99141.97
2024-02-23T11:42:25.847Z,99143.75
2024-02-23T11:44:55.828Z,99164.34
2024-02-23T11:47:24.090Z,99171.28
2024-02-23T11:49:53.542Z,99169.78
2024-02-23T11:52:22.244Z,99179.72
2024-02-23T11:54:50.645Z,99178.63
2024-02-23T11:57:19.256Z,99181.84
2024-02-23T11:59:48.899Z,99183.31
2024-02-23T12:02:17.118Z,99185.91
2024-02-23T12:04:45.553Z,99195.69
2024-02-23T12:07:14.406Z,99185.53
2024-02-23T12:09:43.159Z,99202.09
2024-02-23T12:12:11.698Z,99203.31
2024-02-23T12:14:41.564Z,99210.91
2024-02-23T12:17:11.266Z,99197.88
2024-02-23T12:19:40.906Z,99207.91
2024-02-23T12:22:09.283Z,99205.44
2024-02-23T12:24:37.497Z,99217.25
2024-02-23T12:27:07.202Z,99212.31
2024-02-23T12:29:35.669Z,99204.94
2024-02-23T12:32:08.138Z,99184.84
2024-02-23T12:34:37.899Z,99209.41
2024-02-23T12:37:07.038Z,99213.88
2024-02-23T12:39:35.294Z,99200.25
2024-02-23T12:42:03.703Z,99212.19
2024-02-23T12:44:31.992Z,99205.41
2024-02-23T12:47:00.413Z,99207.47
2024-02-23T12:49:28.874Z,99195.09
2024-02-23T12:51:58.556Z,99207.31
2024-02-23T12:54:26.823Z,99199.88
2024-02-23T12:56:55.150Z,99212.88
2024-02-23T12:59:23.621Z,99211.66
2024-02-23T13:01:53.420Z,99207.78
2024-02-23T13:04:22.041Z,99211.09
2024-02-23T13:06:50.534Z,99223.53
2024-02-23T13:09:20.161Z,99220.19
2024-02-23T13:11:49.204Z,99220.66
2024-02-23T13:14:17.751Z,99216.69
2024-02-23T13:16:46.016Z,99219.41
2024-02-23T13:19:14.301Z,99214.44
2024-02-23T13:21:43.574Z,99217.91
2024-02-23T13:24:11.838Z,99211.91
2024-02-23T13:26:41.354Z,99212.91
2024-02-23T13:29:09.570Z,99217.34
2024-02-23T13:31:39.426Z,99214.50
2024-02-23T13:34:08.206Z,99209.97
2024-02-23T13:36:36.473Z,99230.41
2024-02-23T13:39:04.781Z,99225.75
2024-02-23T13:41:33.248Z,99218.06
2024-02-23T13:44:02.846Z,99229.56
2024-02-23T13:46:31.239Z,99231.78
2024-02-23T13:49:07.734Z,99221.34
2024-02-23T13:51:36.123Z,99227.59
2024-02-23T13:54:05.113Z,99240.22
2024-02-23T13:56:33.415Z,99234.66
2024-02-23T13:59:03.440Z,99246.53
2024-02-23T14:01:31.819Z,99252.06
2024-02-23T14:04:00.321Z,99255.19
2024-02-23T14:06:28.637Z,99252.91
2024-02-23T14:08:56.867Z,99246.84
2024-02-23T14:11:25.193Z,99253.25
2024-02-23T14:13:54.991Z,99260.78
2024-02-23T14:16:25.349Z,99258.72
2024-02-23T14:18:53.869Z,99252.38
2024-02-23T14:21:22.716Z,99260.44
2024-02-23T14:23:50.887Z,99266.31
2024-02-23T14:26:19.385Z,99265.03
2024-02-23T14:28:47.638Z,99260.22
2024-02-23T14:31:15.942Z,99250.25
2024-02-23T14:33:48.020Z,99251.19
2024-02-23T14:36:16.745Z,99259.38
2024-02-23T14:38:45.135Z,99269.25
2024-02-23T14:41:13.521Z,99270.69
2024-02-23T14:43:41.759Z,99278.78
2024-02-23T14:46:10.518Z,99276.84
2024-02-23T14:48:38.908Z,99277.09
2024-02-23T14:51:10.446Z,99281.31
2024-02-23T14:53:38.994Z,99299.56
2024-02-23T14:56:07.998Z,99297.53
2024-02-23T14:58:36.241Z,99296.22
2024-02-23T15:01:05.141Z,99299.31
2024-02-23T15:03:34.206Z,99303.56
2024-02-23T15:06:03.257Z,99309.41
2024-02-23T15:08:32.893Z,99304.63
2024-02-23T15:11:01.237Z,99310.88
2024-02-23T15:13:29.582Z,99320.25
2024-02-23T15:15:57.898Z,99324.84
2024-02-23T15:18:26.165Z,99323.03
2024-02-23T15:20:54.651Z,99322.28
2024-02-23T15:23:25.010Z,99327.38
2024-02-23T15:26:04.141Z,99343.22
2024-02-23T15:28:36.029Z,99339.50
2024-02-23T15:31:04.687Z,99346.88
2024-02-23T15:33:33.124Z,99333.59
2024-02-23T15:36:01.438Z,99350.16
2024-02-23T15:38:29.832Z,99345.50
2024-02-23T15:40:59.390Z,99347.47
2024-02-23T15:43:29.199Z,99351.19
2024-02-23T15:45:57.479Z,99347.47
2024-02-23T15:48:26.002Z,99352.03
2024-02-23T15:51:10.228Z,99347.72
2024-02-23T15:53:42.858Z,99346.31
2024-02-23T15:56:12.538Z,99344.47
2024-02-23T15:58:40.903Z,99351.03
2024-02-23T16:01:09.189Z,99363.34
2024-02-23T16:03:37.875Z,99362.63
2024-02-23T16:06:06.820Z,99350.75
2024-02-23T16:08:42.379Z,99367.56
2024-02-23T16:11:12.763Z,99359.66
2024-02-23T16:13:42.538Z,99370.03
2024-02-23T16:16:12.169Z,99365.38
2024-02-23T16:18:40.724Z,99366.53
2024-02-23T16:21:10.714Z,99368.31
2024-02-23T16:23:39.044Z,99365.56
2024-02-23T16:26:07.465Z,99377.63
2024-02-23T16:28:37.804Z,99370.47
2024-02-23T16:31:06.067Z,99367.88
2024-02-23T16:33:34.410Z,99363.91
2024-02-23T16:36:02.668Z,99346.72
2024-02-23T16:38:30.920Z,99336.69
2024-02-23T16:40:59.203Z,99340.81
2024-02-23T16:43:27.622Z,99350.72
2024-02-23T16:45:57.176Z,99363.47
2024-02-23T16:48:25.451Z,99351.03
2024-02-23T16:50:54.686Z,99354.94
2024-02-23T16:53:23.061Z,99374.44
2024-02-23T16:55:51.357Z,99377.16
2024-02-23T16:58:23.299Z,99376.34
2024-02-23T17:00:54.365Z,99381.06
2024-02-23T17:03:23.955Z,99399.94
2024-02-23T17:05:52.984Z,99406.06
2024-02-23T17:08:21.358Z,99405.22
2024-02-23T17:10:49.817Z,99420.44
2024-02-23T17:13:18.125Z,99420.44
2024-02-23T17:15:46.319Z,99438.34
2024-02-23T17:18:17.868Z,99439.06
2024-02-23T17:20:47.474Z,99449.91
2024-02-23T17:23:15.713Z,99444.41
2024-02-23T17:25:44.783Z,99444.19
2024-02-23T17:28:14.304Z,99443.78
2024-02-23T17:30:42.671Z,99433.44
2024-02-23T17:33:11.004Z,99434.25
2024-02-23T17:35:39.881Z,99432.50
2024-02-23T17:38:09.797Z,99426.81
2024-02-23T17:40:38.015Z,99427.03
2024-02-23T17:43:06.211Z,99421.03
2024-02-23T17:45:34.404Z,99425.09
2024-02-23T17:48:02.741Z,99417.44
2024-02-23T17:50:32.262Z,99418.41
2024-02-23T17:53:00.581Z,99418.91
2024-02-23T17:55:30.234Z,99421.66
2024-02-23T17:58:02.696Z,99411.13
2024-02-23T18:00:37.589Z,99407.19
2024-02-23T18:03:06.229Z,99410.75
2024-02-23T18:05:34.528Z,99414.69
2024-02-23T18:08:03.263Z,99416.22
2024-02-23T18:10:33.528Z,99416.69
2024-02-23T18:13:02.758Z,99422.59
2024-02-23T18:15:30.937Z,99426.34
2024-02-23T18:17:59.389Z,99422.03
2024-02-23T18:20:27.742Z,99418.47
2024-02-23T18:22:56.823Z,99421.06
2024-02-23T18:25:25.077Z,99422.84
2024-02-23T18:27:54.634Z,99430.66
2024-02-23T18:30:22.856Z,99443.09
2024-02-23T18:32:51.258Z,99432.44
2024-02-23T18:35:19.781Z,99426.59
2024-02-23T18:37:48.389Z,99431.56
2024-02-23T18:40:16.818Z,99432.63
2024-02-23T18:42:45.024Z,99432.88
2024-02-23T18:45:15.455Z,99423.19
2024-02-23T18:47:43.766Z,99426.75
2024-02-23T18:50:12.389Z,99426.25
2024-02-23T18:52:40.719Z,99435.91
2024-02-23T18:55:09.609Z,99435.84
2024-02-23T18:57:37.852Z,99436.34
2024-02-23T19:00:07.720Z,99430.03
2024-02-23T19:02:37.491Z,99436.84
2024-02-23T19:05:07.576Z,99442.53
2024-02-23T19:07:35.900Z,99441.25
2024-02-23T19:10:04.442Z,99437.00
2024-02-23T19:12:32.927Z,99439.22
2024-02-23T19:15:01.419Z,99439.81
2024-02-23T19:17:30.516Z,99434.50
2024-02-23T19:20:00.297Z,99439.50
2024-02-23T19:22:29.250Z,99439.88
2024-02-23T19:24:57.457Z,99437.28
2024-02-23T19:27:25.676Z,99436.22
2024-02-23T19:29:54.591Z,99429.81
2024-02-23T19:32:22.806Z,99427.19
2024-02-23T19:34:51.033Z,99416.97
2024-02-23T19:37:20.575Z,99407.03
2024-02-23T19:39:48.921Z,99407.56
2024-02-23T19:42:17.113Z,99405.19
2024-02-23T19:44:45.371Z,99407.72
2024-02-23T19:47:14.366Z,99406.38
2024-02-23T19:49:42.600Z,99417.38
2024-02-23T19:52:14.734Z,99420.09
2024-02-23T19:54:46.076Z,99419.16
2024-02-23T19:57:14.321Z,99421.78
2024-02-23T19:59:42.624Z,99428.72
2024-02-23T20:02:13.975Z,99434.88
2024-02-23T20:04:43.094Z,99421.69
2024-02-23T20:07:14.241Z,99430.38
2024-02-23T20:09:43.813Z,99431.53
2024-02-23T20:12:14.802Z,99439.59
2024-02-23T20:14:43.898Z,99433.69
2024-02-23T20:17:12.201Z,99431.69
2024-02-23T20:19:41.572Z,99453.44
2024-02-23T20:22:09.888Z,99457.53
2024-02-23T20:24:39.989Z,99465.44
2024-02-23T20:27:11.112Z,99462.09
2024-02-23T20:29:39.372Z,99470.59
2024-02-23T20:32:15.993Z,99468.81
2024-02-23T20:34:51.121Z,99482.75
2024-02-23T20:37:19.501Z,99485.94
2024-02-23T20:39:47.765Z,99495.59
2024-02-23T20:42:17.753Z,99501.38
2024-02-23T20:44:46.027Z,99504.66
2024-02-23T20:47:14.783Z,99492.19
2024-02-23T20:49:44.501Z,99488.94
2024-02-23T20:52:16.920Z,99489.13
2024-02-23T20:54:48.045Z,99468.97
2024-02-23T20:57:18.314Z,99480.84
2024-02-23T20:59:46.846Z,99481.75
2024-02-23T21:02:20.687Z,99480.56
2024-02-23T21:04:50.239Z,99479.94
2024-02-23T21:07:19.584Z,99473.22
2024-02-23T21:09:48.385Z,99472.19
2024-02-23T21:12:18.518Z,99457.66
2024-02-23T21:14:46.931Z,99459.19
2024-02-23T21:17:17.062Z,99457.25
2024-02-23T21:19:45.276Z,99451.00
2024-02-23T21:22:13.482Z,99452.41
2024-02-23T21:24:45.917Z,99441.19
2024-02-23T21:27:14.572Z,99430.13
2024-02-23T21:29:45.086Z,99433.41
2024-02-23T21:32:13.538Z,99435.63
2024-02-23T21:34:41.915Z,99440.19
2024-02-23T21:37:13.511Z,99435.19
2024-02-23T21:39:41.818Z,99435.13
2024-02-23T21:42:10.109Z,99436.47
2024-02-23T21:44:38.312Z,99436.75
2024-02-23T21:47:08.052Z,99444.25
2024-02-23T21:49:35.488Z,99435.19
2024-02-23T21:52:06.522Z,99438.78
2024-02-23T21:54:34.990Z,99438.97
2024-02-23T21:57:03.649Z,99431.28
2024-02-23T21:59:32.014Z,99435.34
2024-02-23T22:02:05.572Z,99451.25
2024-02-23T22:04:36.736Z,99470.22
2024-02-23T22:07:05.413Z,99465.13
2024-02-23T22:09:33.605Z,99470.91
2024-02-23T22:12:02.807Z,99475.06
2024-02-23T22:14:31.612Z,99477.88
2024-02-23T22:16:59.946Z,99471.78
2024-02-23T22:19:28.384Z,99462.44
2024-02-23T22:21:57.977Z,99475.53
2024-02-23T22:24:26.293Z,99469.78
2024-02-23T22:26:56.024Z,99470.16
2024-02-23T22:29:24.301Z,99465.81
2024-02-23T22:31:52.634Z,99471.56
2024-02-23T22:34:21.493Z,99464.75
2024-02-23T22:36:50.475Z,99461.31
2024-02-23T22:39:20.521Z,99455.63
2024-02-23T22:41:48.920Z,99452.09
2024-02-23T22:44:17.417Z,99456.94
2024-02-23T22:46:46.813Z,99452.69
2024-02-23T22:49:15.141Z,99455.53
2024-02-23T22:51:45.153Z,99452.97
2024-02-23T22:54:13.607Z,99440.09
2024-02-23T22:56:43.340Z,99437.72
2024-02-23T22:59:12.450Z,99437.53
2024-02-23T23:01:41.180Z,99436.84
2024-02-23T23:04:09.483Z,99432.06
2024-02-23T23:06:39.226Z,99439.81
2024-02-23T23:09:10.387Z,99436.22
2024-02-23T23:11:39.226Z,99435.16
2024-02-23T23:14:09.694Z,99435.53
2024-02-23T23:16:38.206Z,99432.47
2024-02-23T23:19:06.550Z,99431.16
2024-02-23T23:21:34.809Z,99436.06
2024-02-23T23:24:03.041Z,99442.88
2024-02-23T23:26:31.378Z,99432.00
2024-02-23T23:28:59.630Z,99443.09
2024-02-23T23:31:29.821Z,99447.09
2024-02-23T23:33:58.724Z,99445.78
2024-02-23T23:36:27.024Z,99448.41
2024-02-23T23:39:00.016Z,99442.56
2024-02-23T23:41:28.242Z,99428.56
2024-02-23T23:43:56.527Z,99424.56
2024-02-23T23:46:24.782Z,99431.16
2024-02-23T23:48:54.295Z,99428.56
2024-02-23T23:51:22.539Z,99424.50
2024-02-23T23:53:56.437Z,99423.69
2024-02-23T23:56:24.839Z,99423.97
2024-02-23T23:58:53.040Z,99427.81
